PWSweather.com
Personal Weather Stations
Station Observations
RTINEZ
TerrassaES 08226

TerrassaES 08226

Lat: 41.5762194, Lon: 2.028993700000001

Elevation: 367

Station Type: Watson W8681

www.rtinez.cat

High Low Average
Temperature 87.3°F30.7°C 72.7°F22.6°C 77.8°F25.4°C
Dew Point 70.1°F21.2°C 52.8°F11.6°C 60.5°F15.8°C
Winds 11.4 mph 18.3 kmh Calm Calm 4.0 mph S6.4 kmh S
Wind Gusts 132.0 mph212.4 kmh 0.7 mph1.1 kmh 10.0 mph16.1 kmh
Humidity 83% 33% 57%
Pressure 30.01 in1016.3 mb 28.69 in971.6 mb -
Precipitation 0.00 in0.0 mm - -
Hour Temp Dew Point Humidity Winds Wind Gusts Pressure Precip Precip Rate Daily Precip Total
12:00 AM 77.0°F25.0°C 52.2°F11.2°C 42% 6.9 mph NNE11.1 kmh NNE 9.2 mph14.8 kmh 28.74 in973.2 mb 0.00 in0.0 mm 0.00 in0.0 mm 0.00 in0.0 mm
12:15 AM 76.3°F24.6°C 52.8°F11.6°C 44% 4.5 mph NNE7.2 kmh NNE 8.3 mph13.4 kmh 29.96 in1014.6 mb 0.00 in0.0 mm 0.00 in0.0 mm 0.00 in0.0 mm
12:30 AM 75.4°F24.1°C 52.6°F11.4°C 45% 0.7 mph NNE1.1 kmh NNE 6.0 mph9.7 kmh 28.74 in973.2 mb 0.00 in0.0 mm 0.00 in0.0 mm 0.00 in0.0 mm
12:45 AM 75.0°F23.9°C 52.9°F11.6°C 46% 1.6 mph N2.6 kmh N 3.1 mph5.0 kmh 28.74 in973.2 mb 0.00 in0.0 mm 0.00 in0.0 mm 0.00 in0.0 mm
01:00 AM 74.7°F23.7°C 53.1°F11.7°C 47% 1.6 mph NNE2.6 kmh NNE 3.1 mph5.0 kmh 28.74 in973.2 mb 0.00 in0.0 mm 0.00 in0.0 mm 0.00 in0.0 mm
01:15 AM 74.5°F23.6°C 53.5°F11.9°C 48% 2.2 mph N3.5 kmh N 3.8 mph6.1 kmh 28.74 in973.2 mb 0.00 in0.0 mm 0.00 in0.0 mm 0.00 in0.0 mm
01:30 AM 74.7°F23.7°C 54.3°F12.4°C 49% 1.6 mph NNE2.6 kmh NNE 5.4 mph8.7 kmh 28.73 in972.9 mb 0.00 in0.0 mm 0.00 in0.0 mm 0.00 in0.0 mm
01:45 AM 75.0°F23.9°C 54.6°F12.6°C 49% 2.2 mph NE3.5 kmh NE 6.9 mph11.1 kmh 29.96 in1014.6 mb 0.00 in0.0 mm 0.00 in0.0 mm 0.00 in0.0 mm
02:00 AM 74.5°F23.6°C 55.2°F12.9°C 51% 0.7 mph S1.1 kmh S 132.0 mph212.4 kmh 29.96 in1014.6 mb 0.00 in0.0 mm 0.00 in0.0 mm 0.00 in0.0 mm
02:15 AM 74.1°F23.4°C 55.9°F13.3°C 53% Calm Calm 2.2 mph3.5 kmh 28.74 in973.2 mb 0.00 in0.0 mm 0.00 in0.0 mm 0.00 in0.0 mm
02:30 AM 73.6°F23.1°C 54.9°F12.7°C 52% 4.5 mph NW7.2 kmh NW 132.0 mph212.4 kmh 28.73 in972.9 mb 0.00 in0.0 mm 0.00 in0.0 mm 0.00 in0.0 mm
02:45 AM 72.9°F22.7°C 54.2°F12.3°C 52% 3.1 mph NW5.0 kmh NW 6.9 mph11.1 kmh 29.96 in1014.6 mb 0.00 in0.0 mm 0.00 in0.0 mm 0.00 in0.0 mm
03:00 AM 72.9°F22.7°C 54.2°F12.3°C 52% 2.2 mph NW3.5 kmh NW 5.4 mph8.7 kmh 29.96 in1014.6 mb 0.00 in0.0 mm 0.00 in0.0 mm 0.00 in0.0 mm
03:15 AM 73.6°F23.1°C 55.4°F13.0°C 53% 3.1 mph W5.0 kmh W 6.0 mph9.7 kmh 29.95 in1014.2 mb 0.00 in0.0 mm 0.00 in0.0 mm 0.00 in0.0 mm
03:30 AM 73.6°F23.1°C 54.9°F12.7°C 52% 3.8 mph NNW6.1 kmh NNW 5.4 mph8.7 kmh 29.95 in1014.2 mb 0.00 in0.0 mm 0.00 in0.0 mm 0.00 in0.0 mm
03:45 AM 74.7°F23.7°C 54.8°F12.7°C 50% 3.1 mph NW5.0 kmh NW 4.5 mph7.2 kmh 29.95 in1014.2 mb 0.00 in0.0 mm 0.00 in0.0 mm 0.00 in0.0 mm
04:00 AM 75.2°F24.0°C 54.2°F12.3°C 48% 3.1 mph NNW5.0 kmh NNW 5.4 mph8.7 kmh 29.95 in1014.2 mb 0.00 in0.0 mm 0.00 in0.0 mm 0.00 in0.0 mm
04:15 AM 74.5°F23.6°C 55.2°F12.9°C 51% 3.1 mph N5.0 kmh N 5.4 mph8.7 kmh 28.72 in972.6 mb 0.00 in0.0 mm 0.00 in0.0 mm 0.00 in0.0 mm
04:30 AM 74.1°F23.4°C 54.3°F12.4°C 50% 3.1 mph N5.0 kmh N 5.4 mph8.7 kmh 29.94 in1013.9 mb 0.00 in0.0 mm 0.00 in0.0 mm 0.00 in0.0 mm
04:45 AM 74.1°F23.4°C 54.3°F12.4°C 50% 2.2 mph N3.5 kmh N 6.0 mph9.7 kmh 28.71 in972.2 mb 0.00 in0.0 mm 0.00 in0.0 mm 0.00 in0.0 mm
05:00 AM 73.6°F23.1°C 54.9°F12.7°C 52% 3.8 mph NNW6.1 kmh NNW 5.4 mph8.7 kmh 28.72 in972.6 mb 0.00 in0.0 mm 0.00 in0.0 mm 0.00 in0.0 mm
05:15 AM 73.9°F23.3°C 54.2°F12.3°C 50% 3.1 mph N5.0 kmh N 5.4 mph8.7 kmh 29.93 in1013.5 mb 0.00 in0.0 mm 0.00 in0.0 mm 0.00 in0.0 mm
05:30 AM 74.1°F23.4°C 54.3°F12.4°C 50% 1.6 mph N2.6 kmh N 3.8 mph6.1 kmh 29.93 in1013.5 mb 0.00 in0.0 mm 0.00 in0.0 mm 0.00 in0.0 mm
05:45 AM 73.4°F23.0°C 54.7°F12.6°C 52% 1.6 mph NNE2.6 kmh NNE 6.9 mph11.1 kmh 28.71 in972.2 mb 0.00 in0.0 mm 0.00 in0.0 mm 0.00 in0.0 mm
06:00 AM 72.9°F22.7°C 53.7°F12.1°C 51% 1.6 mph NW2.6 kmh NW 3.8 mph6.1 kmh 28.71 in972.2 mb 0.00 in0.0 mm 0.00 in0.0 mm 0.00 in0.0 mm
06:15 AM 72.7°F22.6°C 53.5°F11.9°C 51% 1.6 mph N2.6 kmh N 3.8 mph6.1 kmh 28.71 in972.2 mb 0.00 in0.0 mm 0.00 in0.0 mm 0.00 in0.0 mm
06:30 AM 73.2°F22.9°C 54.6°F12.6°C 52% 3.1 mph N5.0 kmh N 5.4 mph8.7 kmh 28.72 in972.6 mb 0.00 in0.0 mm 0.00 in0.0 mm 0.00 in0.0 mm
06:45 AM 74.5°F23.6°C 55.7°F13.2°C 52% 2.2 mph N3.5 kmh N 6.0 mph9.7 kmh 29.95 in1014.2 mb 0.00 in0.0 mm 0.00 in0.0 mm 0.00 in0.0 mm
07:00 AM 76.5°F24.7°C 55.3°F12.9°C 48% 1.6 mph N2.6 kmh N 3.8 mph6.1 kmh 29.95 in1014.2 mb 0.00 in0.0 mm 0.00 in0.0 mm 0.00 in0.0 mm
07:15 AM 77.2°F25.1°C 54.8°F12.7°C 46% 1.6 mph NW2.6 kmh NW 3.1 mph5.0 kmh 29.94 in1013.9 mb 0.00 in0.0 mm 0.00 in0.0 mm 0.00 in0.0 mm
07:30 AM 78.6°F25.9°C 54.3°F12.4°C 43% 1.6 mph WSW2.6 kmh WSW 3.8 mph6.1 kmh 28.73 in972.9 mb 0.00 in0.0 mm 0.00 in0.0 mm 0.00 in0.0 mm
07:45 AM 82.2°F27.9°C 54.1°F12.3°C 38% Calm Calm 1.6 mph2.6 kmh 28.72 in972.6 mb 0.00 in0.0 mm 0.00 in0.0 mm 0.00 in0.0 mm
08:00 AM 84.4°F29.1°C 53.8°F12.1°C 35% 0.7 mph E1.1 kmh E 1.6 mph2.6 kmh 29.95 in1014.2 mb 0.00 in0.0 mm 0.00 in0.0 mm 0.00 in0.0 mm
08:15 AM 86.2°F30.1°C 53.8°F12.1°C 33% Calm Calm 2.2 mph3.5 kmh 29.95 in1014.2 mb 0.00 in0.0 mm 0.00 in0.0 mm 0.00 in0.0 mm
08:30 AM 83.3°F28.5°C 52.8°F11.6°C 35% 2.2 mph ESE3.5 kmh ESE 3.8 mph6.1 kmh 28.73 in972.9 mb 0.00 in0.0 mm 0.00 in0.0 mm 0.00 in0.0 mm
08:45 AM 81.9°F27.7°C 54.5°F12.5°C 39% 3.1 mph ESE5.0 kmh ESE 4.5 mph7.2 kmh 28.74 in973.2 mb 0.00 in0.0 mm 0.00 in0.0 mm 0.00 in0.0 mm
09:00 AM 81.9°F27.7°C 56.6°F13.7°C 42% 3.8 mph SE6.1 kmh SE 5.4 mph8.7 kmh 28.73 in972.9 mb 0.00 in0.0 mm 0.00 in0.0 mm 0.00 in0.0 mm
09:15 AM 82.2°F27.9°C 55.5°F13.1°C 40% 2.2 mph SE3.5 kmh SE 5.4 mph8.7 kmh 28.74 in973.2 mb 0.00 in0.0 mm 0.00 in0.0 mm 0.00 in0.0 mm
09:30 AM 82.2°F27.9°C 55.5°F13.1°C 40% 2.2 mph SE3.5 kmh SE 4.5 mph7.2 kmh 29.96 in1014.6 mb 0.00 in0.0 mm 0.00 in0.0 mm 0.00 in0.0 mm
09:45 AM 81.5°F27.5°C 56.9°F13.8°C 43% 3.1 mph SE5.0 kmh SE 6.9 mph11.1 kmh 28.75 in973.6 mb 0.00 in0.0 mm 0.00 in0.0 mm 0.00 in0.0 mm
10:00 AM 81.5°F27.5°C 58.8°F14.9°C 46% 3.1 mph SE5.0 kmh SE 6.0 mph9.7 kmh 28.74 in973.2 mb 0.00 in0.0 mm 0.00 in0.0 mm 0.00 in0.0 mm
10:15 AM 83.3°F28.5°C 57.9°F14.4°C 42% 2.2 mph SE3.5 kmh SE 6.9 mph11.1 kmh 29.97 in1014.9 mb 0.00 in0.0 mm 0.00 in0.0 mm 0.00 in0.0 mm
10:30 AM 82.2°F27.9°C 56.9°F13.8°C 42% 3.1 mph S5.0 kmh S 9.2 mph14.8 kmh 29.97 in1014.9 mb 0.00 in0.0 mm 0.00 in0.0 mm 0.00 in0.0 mm
10:45 AM 84.7°F29.3°C 57.1°F13.9°C 39% 0.7 mph S1.1 kmh S 5.4 mph8.7 kmh 29.97 in1014.9 mb 0.00 in0.0 mm 0.00 in0.0 mm 0.00 in0.0 mm
11:00 AM 81.5°F27.5°C 56.2°F13.4°C 42% 3.8 mph SW6.1 kmh SW 9.2 mph14.8 kmh 29.97 in1014.9 mb 0.00 in0.0 mm 0.00 in0.0 mm 0.00 in0.0 mm
11:15 AM 81.0°F27.2°C 57.7°F14.3°C 45% 3.8 mph S6.1 kmh S 8.3 mph13.4 kmh 29.97 in1014.9 mb 0.00 in0.0 mm 0.00 in0.0 mm 0.00 in0.0 mm
11:30 AM 81.1°F27.3°C 56.6°F13.7°C 43% 8.3 mph WSW13.4 kmh WSW 10.7 mph17.2 kmh 28.74 in973.2 mb 0.00 in0.0 mm 0.00 in0.0 mm 0.00 in0.0 mm
11:45 AM 79.7°F26.5°C 55.9°F13.3°C 44% 6.9 mph SW11.1 kmh SW 9.8 mph15.8 kmh 29.96 in1014.6 mb 0.00 in0.0 mm 0.00 in0.0 mm 0.00 in0.0 mm
12:00 PM 79.7°F26.5°C 55.9°F13.3°C 44% 7.6 mph W12.2 kmh W 10.7 mph17.2 kmh 28.74 in973.2 mb 0.00 in0.0 mm 0.00 in0.0 mm 0.00 in0.0 mm
12:15 PM 80.4°F26.9°C 58.4°F14.7°C 47% 7.6 mph WSW12.2 kmh WSW 11.4 mph18.3 kmh 29.96 in1014.6 mb 0.00 in0.0 mm 0.00 in0.0 mm 0.00 in0.0 mm
12:30 PM 80.4°F26.9°C 60.1°F15.6°C 50% 4.5 mph WSW7.2 kmh WSW 10.7 mph17.2 kmh 29.96 in1014.6 mb 0.00 in0.0 mm 0.00 in0.0 mm 0.00 in0.0 mm
12:45 PM 82.6°F28.1°C 62.1°F16.7°C 50% 3.1 mph WSW5.0 kmh WSW 10.7 mph17.2 kmh 29.96 in1014.6 mb 0.00 in0.0 mm 0.00 in0.0 mm 0.00 in0.0 mm
01:00 PM 83.5°F28.6°C 63.5°F17.5°C 51% 1.6 mph SW2.6 kmh SW 11.4 mph18.3 kmh 29.95 in1014.2 mb 0.00 in0.0 mm 0.00 in0.0 mm 0.00 in0.0 mm
01:15 PM 84.7°F29.3°C 62.9°F17.2°C 48% 6.0 mph SSE9.7 kmh SSE 9.2 mph14.8 kmh 28.72 in972.6 mb 0.00 in0.0 mm 0.00 in0.0 mm 0.00 in0.0 mm
01:30 PM 84.2°F29.0°C 63.0°F17.2°C 49% 2.2 mph SW3.5 kmh SW 9.8 mph15.8 kmh 28.71 in972.2 mb 0.00 in0.0 mm 0.00 in0.0 mm 0.00 in0.0 mm
01:45 PM 87.3°F30.7°C 61.4°F16.3°C 42% 4.5 mph SW7.2 kmh SW 6.9 mph11.1 kmh 28.71 in972.2 mb 0.00 in0.0 mm 0.00 in0.0 mm 0.00 in0.0 mm
02:00 PM 84.4°F29.1°C 59.5°F15.3°C 43% 1.6 mph WSW2.6 kmh WSW 11.4 mph18.3 kmh 28.71 in972.2 mb 0.00 in0.0 mm 0.00 in0.0 mm 0.00 in0.0 mm
02:15 PM 85.1°F29.5°C 59.5°F15.3°C 42% 6.9 mph SW11.1 kmh SW 10.7 mph17.2 kmh 29.93 in1013.5 mb 0.00 in0.0 mm 0.00 in0.0 mm 0.00 in0.0 mm
02:30 PM 85.5°F29.7°C 59.8°F15.4°C 42% 4.5 mph SW7.2 kmh SW 7.6 mph12.2 kmh 29.93 in1013.5 mb 0.00 in0.0 mm 0.00 in0.0 mm 0.00 in0.0 mm
02:45 PM 85.5°F29.7°C 59.8°F15.4°C 42% 2.2 mph S3.5 kmh S 10.7 mph17.2 kmh 29.93 in1013.5 mb 0.00 in0.0 mm 0.00 in0.0 mm 0.00 in0.0 mm
03:00 PM 85.5°F29.7°C 59.8°F15.4°C 42% 5.4 mph WSW8.7 kmh WSW 10.7 mph17.2 kmh 29.93 in1013.5 mb 0.00 in0.0 mm 0.00 in0.0 mm 0.00 in0.0 mm
03:15 PM 84.2°F29.0°C 60.6°F15.9°C 45% 4.5 mph SSW7.2 kmh SSW 13.6 mph21.9 kmh 28.69 in971.6 mb 0.00 in0.0 mm 0.00 in0.0 mm 0.00 in0.0 mm
03:30 PM 82.8°F28.2°C 66.0°F18.9°C 57% 8.3 mph SE13.4 kmh SE 15.2 mph24.5 kmh 29.92 in1013.2 mb 0.00 in0.0 mm 0.00 in0.0 mm 0.00 in0.0 mm
03:45 PM 81.7°F27.6°C 66.5°F19.2°C 60% 10.7 mph ESE17.2 kmh ESE 15.2 mph24.5 kmh 28.70 in971.9 mb 0.00 in0.0 mm 0.00 in0.0 mm 0.00 in0.0 mm
04:00 PM 81.7°F27.6°C 66.5°F19.2°C 60% 4.5 mph ESE7.2 kmh ESE 14.5 mph23.3 kmh 28.69 in971.6 mb 0.00 in0.0 mm 0.00 in0.0 mm 0.00 in0.0 mm
04:15 PM 81.7°F27.6°C 66.0°F18.9°C 59% 8.3 mph SE13.4 kmh SE 14.5 mph23.3 kmh 28.69 in971.6 mb 0.00 in0.0 mm 0.00 in0.0 mm 0.00 in0.0 mm
04:30 PM 79.0°F26.1°C 66.7°F19.3°C 66% 6.9 mph SE11.1 kmh SE 15.9 mph25.6 kmh 29.92 in1013.2 mb 0.00 in0.0 mm 0.00 in0.0 mm 0.00 in0.0 mm
04:45 PM 77.2°F25.1°C 66.7°F19.3°C 70% 8.3 mph ESE13.4 kmh ESE 15.9 mph25.6 kmh 29.92 in1013.2 mb 0.00 in0.0 mm 0.00 in0.0 mm 0.00 in0.0 mm
05:00 PM 77.2°F25.1°C 67.1°F19.5°C 71% 6.0 mph SE9.7 kmh SE 14.5 mph23.3 kmh 28.70 in971.9 mb 0.00 in0.0 mm 0.00 in0.0 mm 0.00 in0.0 mm
05:15 PM 77.0°F25.0°C 67.7°F19.8°C 73% 11.4 mph ESE18.3 kmh ESE 15.9 mph25.6 kmh 29.94 in1013.9 mb 0.00 in0.0 mm 0.00 in0.0 mm 0.00 in0.0 mm
05:30 PM 76.8°F24.9°C 69.1°F20.6°C 77% 6.0 mph SE9.7 kmh SE 14.5 mph23.3 kmh 28.71 in972.2 mb 0.00 in0.0 mm 0.00 in0.0 mm 0.00 in0.0 mm
05:45 PM 76.5°F24.7°C 69.5°F20.8°C 79% 6.9 mph SE11.1 kmh SE 12.1 mph19.5 kmh 28.73 in972.9 mb 0.00 in0.0 mm 0.00 in0.0 mm 0.00 in0.0 mm
06:00 PM 76.3°F24.6°C 70.1°F21.2°C 81% 5.4 mph SE8.7 kmh SE 11.4 mph18.3 kmh 28.72 in972.6 mb 0.00 in0.0 mm 0.00 in0.0 mm 0.00 in0.0 mm
06:15 PM 76.1°F24.5°C 69.9°F21.1°C 81% 5.4 mph E8.7 kmh E 12.1 mph19.5 kmh 28.72 in972.6 mb 0.00 in0.0 mm 0.00 in0.0 mm 0.00 in0.0 mm
06:30 PM 75.6°F24.2°C 70.1°F21.2°C 83% 8.3 mph SE13.4 kmh SE 12.1 mph19.5 kmh 28.72 in972.6 mb 0.00 in0.0 mm 0.00 in0.0 mm 0.00 in0.0 mm
06:45 PM 74.8°F23.8°C 69.0°F20.6°C 82% 9.8 mph SE15.8 kmh SE 15.2 mph24.5 kmh 28.73 in972.9 mb 0.00 in0.0 mm 0.00 in0.0 mm 0.00 in0.0 mm
07:00 PM 75.0°F23.9°C 67.7°F19.8°C 78% 7.6 mph SE12.2 kmh SE 13.0 mph20.9 kmh 28.73 in972.9 mb 0.00 in0.0 mm 0.00 in0.0 mm 0.00 in0.0 mm
07:15 PM 74.8°F23.8°C 67.9°F19.9°C 79% 7.6 mph SE12.2 kmh SE 12.1 mph19.5 kmh 28.74 in973.2 mb 0.00 in0.0 mm 0.00 in0.0 mm 0.00 in0.0 mm
07:30 PM 74.8°F23.8°C 67.9°F19.9°C 79% 3.8 mph SE6.1 kmh SE 12.1 mph19.5 kmh 28.75 in973.6 mb 0.00 in0.0 mm 0.00 in0.0 mm 0.00 in0.0 mm
07:45 PM 74.7°F23.7°C 68.1°F20.1°C 80% 4.5 mph SE7.2 kmh SE 9.8 mph15.8 kmh 29.97 in1014.9 mb 0.00 in0.0 mm 0.00 in0.0 mm 0.00 in0.0 mm
08:00 PM 74.5°F23.6°C 67.9°F19.9°C 80% 3.8 mph SE6.1 kmh SE 10.7 mph17.2 kmh 28.76 in973.9 mb 0.00 in0.0 mm 0.00 in0.0 mm 0.00 in0.0 mm
08:15 PM 74.5°F23.6°C 67.9°F19.9°C 80% 3.1 mph ESE5.0 kmh ESE 9.8 mph15.8 kmh 28.77 in974.3 mb 0.00 in0.0 mm 0.00 in0.0 mm 0.00 in0.0 mm
08:30 PM 74.5°F23.6°C 67.9°F19.9°C 80% 5.4 mph ESE8.7 kmh ESE 7.6 mph12.2 kmh 28.77 in974.3 mb 0.00 in0.0 mm 0.00 in0.0 mm 0.00 in0.0 mm
08:45 PM 74.1°F23.4°C 67.2°F19.6°C 79% 3.1 mph ESE5.0 kmh ESE 6.9 mph11.1 kmh 30.00 in1015.9 mb 0.00 in0.0 mm 0.00 in0.0 mm 0.00 in0.0 mm
09:00 PM 74.1°F23.4°C 67.2°F19.6°C 79% 0.7 mph ESE1.1 kmh ESE 4.5 mph7.2 kmh 30.01 in1016.3 mb 0.00 in0.0 mm 0.00 in0.0 mm 0.00 in0.0 mm
09:15 PM 74.1°F23.4°C 67.2°F19.6°C 79% 1.6 mph E2.6 kmh E 3.8 mph6.1 kmh 28.77 in974.3 mb 0.00 in0.0 mm 0.00 in0.0 mm 0.00 in0.0 mm
09:30 PM 73.9°F23.3°C 67.1°F19.5°C 79% 0.7 mph SE1.1 kmh SE 5.4 mph8.7 kmh 28.78 in974.6 mb 0.00 in0.0 mm 0.00 in0.0 mm 0.00 in0.0 mm
09:45 PM 73.9°F23.3°C 67.1°F19.5°C 79% 0.7 mph SE1.1 kmh SE 3.1 mph5.0 kmh 28.77 in974.3 mb 0.00 in0.0 mm 0.00 in0.0 mm 0.00 in0.0 mm
10:00 PM 74.1°F23.4°C 67.2°F19.6°C 79% 0.7 mph SE1.1 kmh SE 3.1 mph5.0 kmh 28.77 in974.3 mb 0.00 in0.0 mm 0.00 in0.0 mm 0.00 in0.0 mm
10:15 PM 73.9°F23.3°C 67.1°F19.5°C 79% Calm Calm 0.7 mph1.1 kmh 29.99 in1015.6 mb 0.00 in0.0 mm 0.00 in0.0 mm 0.00 in0.0 mm
10:30 PM 73.6°F23.1°C 66.7°F19.3°C 79% 0.7 mph N1.1 kmh N 3.1 mph5.0 kmh 28.77 in974.3 mb 0.00 in0.0 mm 0.00 in0.0 mm 0.00 in0.0 mm
10:45 PM 73.6°F23.1°C 67.1°F19.5°C 80% 0.7 mph NW1.1 kmh NW 3.1 mph5.0 kmh 28.77 in974.3 mb 0.00 in0.0 mm 0.00 in0.0 mm 0.00 in0.0 mm
11:00 PM 74.1°F23.4°C 67.2°F19.6°C 79% 1.6 mph N2.6 kmh N 3.1 mph5.0 kmh 28.77 in974.3 mb 0.00 in0.0 mm 0.00 in0.0 mm 0.00 in0.0 mm
11:15 PM 74.1°F23.4°C 67.2°F19.6°C 79% 2.2 mph N3.5 kmh N 3.1 mph5.0 kmh 28.77 in974.3 mb 0.00 in0.0 mm 0.00 in0.0 mm 0.00 in0.0 mm
11:30 PM 74.1°F23.4°C 65.7°F18.7°C 75% 1.6 mph NNE2.6 kmh NNE 4.5 mph7.2 kmh 29.99 in1015.6 mb 0.00 in0.0 mm 0.00 in0.0 mm 0.00 in0.0 mm
11:45 PM 74.3°F23.5°C 65.1°F18.4°C 73% 2.2 mph NE3.5 kmh NE 4.5 mph7.2 kmh 29.99 in1015.6 mb 0.00 in0.0 mm 0.00 in0.0 mm 0.00 in0.0 mm